sensor_id;sensor_type;location;lat;lon;timestamp;pressure;altitude;pressure_sealevel;temperature;humidity
65329;BME280;51941;52.210;5.158;2023-02-23T00:00:24;101268.53;;;9.05;100.00
65329;BME280;51941;52.210;5.158;2023-02-23T00:02:55;101276.44;;;9.05;100.00
65329;BME280;51941;52.210;5.158;2023-02-23T00:05:23;101274.44;;;9.00;100.00
65329;BME280;51941;52.210;5.158;2023-02-23T00:07:50;101274.63;;;9.05;100.00
65329;BME280;51941;52.210;5.158;2023-02-23T00:10:19;101270.97;;;9.06;100.00
65329;BME280;51941;52.210;5.158;2023-02-23T00:12:47;101266.09;;;9.03;100.00
65329;BME280;51941;52.210;5.158;2023-02-23T00:15:14;101268.53;;;9.05;100.00
65329;BME280;51941;52.210;5.158;2023-02-23T00:17:42;101082.44;;;7.87;100.00
65329;BME280;51941;52.210;5.158;2023-02-23T00:20:13;101270.16;;;9.06;100.00
65329;BME280;51941;52.210;5.158;2023-02-23T00:22:41;101269.53;;;9.04;100.00
65329;BME280;51941;52.210;5.158;2023-02-23T00:25:10;101268.72;;;9.03;100.00
65329;BME280;51941;52.210;5.158;2023-02-23T00:27:37;101272.41;;;9.02;100.00
65329;BME280;51941;52.210;5.158;2023-02-23T00:30:10;101268.34;;;9.00;100.00
65329;BME280;51941;52.210;5.158;2023-02-23T00:32:38;101266.31;;;9.02;100.00
65329;BME280;51941;52.210;5.158;2023-02-23T00:35:06;101271.59;;;9.02;100.00
65329;BME280;51941;52.210;5.158;2023-02-23T00:37:44;101267.34;;;9.01;100.00
65329;BME280;51941;52.210;5.158;2023-02-23T00:40:13;101255.75;;;9.02;100.00
65329;BME280;51941;52.210;5.158;2023-02-23T00:42:42;101263.25;;;9.05;100.00
65329;BME280;51941;52.210;5.158;2023-02-23T00:45:10;101258.16;;;9.03;100.00
65329;BME280;51941;52.210;5.158;2023-02-23T00:47:39;101256.34;;;9.04;100.00
65329;BME280;51941;52.210;5.158;2023-02-23T00:50:08;101268.53;;;9.05;100.00
65329;BME280;51941;52.210;5.158;2023-02-23T00:52:38;101258.59;;;9.00;100.00
65329;BME280;51941;52.210;5.158;2023-02-23T00:55:08;101254.53;;;8.98;100.00
65329;BME280;51941;52.210;5.158;2023-02-23T00:57:35;101138.88;;;8.24;100.00
65329;BME280;51941;52.210;5.158;2023-02-23T01:00:03;101234.69;;;8.89;100.00
65329;BME280;51941;52.210;5.158;2023-02-23T01:02:39;101255.97;;;9.00;100.00
65329;BME280;51941;52.210;5.158;2023-02-23T01:05:08;101259.41;;;9.01;100.00
65329;BME280;51941;52.210;5.158;2023-02-23T01:07:36;101256.16;;;8.99;100.00
65329;BME280;51941;52.210;5.158;2023-02-23T01:10:04;101263.06;;;9.00;100.00
65329;BME280;51941;52.210;5.158;2023-02-23T01:12:46;101263.28;;;8.98;100.00
65329;BME280;51941;52.210;5.158;2023-02-23T01:15:14;101262.66;;;8.96;100.00
65329;BME280;51941;52.210;5.158;2023-02-23T01:17:41;101260.84;;;8.97;100.00
65329;BME280;51941;52.210;5.158;2023-02-23T01:20:11;101258.81;;;8.99;100.00
65329;BME280;51941;52.210;5.158;2023-02-23T01:22:45;101259.66;;;8.93;100.00
65329;BME280;51941;52.210;5.158;2023-02-23T01:25:14;101261.47;;;8.92;100.00
65329;BME280;51941;52.210;5.158;2023-02-23T01:27:41;101261.88;;;8.89;100.00
65329;BME280;51941;52.210;5.158;2023-02-23T01:30:11;101261.47;;;8.86;100.00
65329;BME280;51941;52.210;5.158;2023-02-23T01:32:39;101263.91;;;8.87;100.00
65329;BME280;51941;52.210;5.158;2023-02-23T01:35:09;101267.56;;;8.86;100.00
65329;BME280;51941;52.210;5.158;2023-02-23T01:37:38;101258.84;;;8.86;100.00
65329;BME280;51941;52.210;5.158;2023-02-23T01:40:09;101256.19;;;8.86;100.00
65329;BME280;51941;52.210;5.158;2023-02-23T01:42:41;101246.50;;;8.79;100.00
65329;BME280;51941;52.210;5.158;2023-02-23T01:45:24;101244.47;;;8.81;100.00
65329;BME280;51941;52.210;5.158;2023-02-23T01:47:55;101249.72;;;8.81;100.00
65329;BME280;51941;52.210;5.158;2023-02-23T01:50:24;101262.53;;;8.85;100.00
65329;BME280;51941;52.210;5.158;2023-02-23T01:52:53;101264.56;;;8.82;100.00
65329;BME280;51941;52.210;5.158;2023-02-23T01:55:22;101270.44;;;8.85;100.00
65329;BME280;51941;52.210;5.158;2023-02-23T01:57:53;101256.44;;;8.84;100.00
65329;BME280;51941;52.210;5.158;2023-02-23T02:00:24;101263.91;;;8.87;100.00
65329;BME280;51941;52.210;5.158;2023-02-23T02:02:52;101271.22;;;8.85;100.00
65329;BME280;51941;52.210;5.158;2023-02-23T02:05:20;101077.41;;;7.65;100.00
65329;BME280;51941;52.210;5.158;2023-02-23T02:07:50;101259.69;;;8.79;100.00
65329;BME280;51941;52.210;5.158;2023-02-23T02:10:25;101266.78;;;8.79;100.00
65329;BME280;51941;52.210;5.158;2023-02-23T02:13:19;101271.06;;;8.80;100.00
65329;BME280;51941;52.210;5.158;2023-02-23T02:16:06;101272.28;;;8.77;100.00
65329;BME280;51941;52.210;5.158;2023-02-23T02:18:51;101264.59;;;8.76;100.00
65329;BME280;51941;52.210;5.158;2023-02-23T02:21:46;101271.47;;;8.77;100.00
65329;BME280;51941;52.210;5.158;2023-02-23T02:24:33;101267.59;;;8.79;100.00
65329;BME280;51941;52.210;5.158;2023-02-23T02:27:20;101261.94;;;8.69;100.00
65329;BME280;51941;52.210;5.158;2023-02-23T02:33:26;101277.97;;;8.81;100.00
65329;BME280;51941;52.210;5.158;2023-02-23T02:36:38;101281.41;;;8.81;100.00
65329;BME280;51941;52.210;5.158;2023-02-23T02:39:11;101189.22;;;8.22;100.00
65329;BME280;51941;52.210;5.158;2023-02-23T02:41:52;101267.59;;;8.79;100.00
65329;BME280;51941;52.210;5.158;2023-02-23T02:44:27;101272.88;;;8.79;100.00
65329;BME280;51941;52.210;5.158;2023-02-23T02:47:00;101190.25;;;8.21;100.00
65329;BME280;51941;52.210;5.158;2023-02-23T02:49:31;101264.78;;;8.74;100.00
65329;BME280;51941;52.210;5.158;2023-02-23T02:52:11;101265.19;;;8.71;100.00
65329;BME280;51941;52.210;5.158;2023-02-23T02:54:43;101260.13;;;8.70;100.00
65329;BME280;51941;52.210;5.158;2023-02-23T02:57:13;101195.53;;;8.15;100.00
65329;BME280;51941;52.210;5.158;2023-02-23T02:59:42;101262.75;;;8.70;100.00
65329;BME280;51941;52.210;5.158;2023-02-23T03:02:27;101261.78;;;8.64;100.00
65329;BME280;51941;52.210;5.158;2023-02-23T03:05:13;101274.13;;;8.70;100.00
65329;BME280;51941;52.210;5.158;2023-02-23T03:08:08;101275.13;;;8.69;100.00
65329;BME280;51941;52.210;5.158;2023-02-23T03:10:56;101266.41;;;8.69;100.00
65329;BME280;51941;52.210;5.158;2023-02-23T03:13:54;101266.41;;;8.69;100.00
65329;BME280;51941;52.210;5.158;2023-02-23T03:16:50;101269.28;;;8.67;100.00
65329;BME280;51941;52.210;5.158;2023-02-23T03:19:46;101242.50;;;8.51;100.00
65329;BME280;51941;52.210;5.158;2023-02-23T03:22:34;101269.06;;;8.62;100.00
65329;BME280;51941;52.210;5.158;2023-02-23T03:25:27;101271.50;;;8.64;100.00
65329;BME280;51941;52.210;5.158;2023-02-23T03:28:16;101271.72;;;8.62;100.00
65329;BME280;51941;52.210;5.158;2023-02-23T03:31:07;101272.13;;;8.59;100.00
65329;BME280;51941;52.210;5.158;2023-02-23T03:33:58;101275.16;;;8.63;100.00
65329;BME280;51941;52.210;5.158;2023-02-23T03:36:47;101273.53;;;8.62;100.00
65329;BME280;51941;52.210;5.158;2023-02-23T03:39:37;101276.38;;;8.60;100.00
65329;BME280;51941;52.210;5.158;2023-02-23T03:42:29;101280.84;;;8.60;100.00
65329;BME280;51941;52.210;5.158;2023-02-23T03:45:18;101278.19;;;8.60;100.00
65329;BME280;51941;52.210;5.158;2023-02-23T03:48:08;101274.56;;;8.61;100.00
65329;BME280;51941;52.210;5.158;2023-02-23T03:50:54;101094.84;;;7.47;100.00
65329;BME280;51941;52.210;5.158;2023-02-23T03:53:43;101276.38;;;8.60;100.00
65329;BME280;51941;52.210;5.158;2023-02-23T03:56:32;101292.81;;;8.62;100.00
65329;BME280;51941;52.210;5.158;2023-02-23T03:59:23;101291.81;;;8.63;100.00
65329;BME280;51941;52.210;5.158;2023-02-23T04:02:11;101300.13;;;8.60;100.00
65329;BME280;51941;52.210;5.158;2023-02-23T04:05:01;101302.38;;;8.63;100.00
65329;BME280;51941;52.210;5.158;2023-02-23T04:07:50;101300.53;;;8.64;100.00
65329;BME280;51941;52.210;5.158;2023-02-23T04:10:42;101297.91;;;8.64;100.00
65329;BME280;51941;52.210;5.158;2023-02-23T04:13:29;101195.34;;;7.90;100.00
65329;BME280;51941;52.210;5.158;2023-02-23T04:16:01;101214.41;;;8.12;100.00
65329;BME280;51941;52.210;5.158;2023-02-23T04:18:30;101276.81;;;8.51;100.00
65329;BME280;51941;52.210;5.158;2023-02-23T04:20:59;101295.47;;;8.62;100.00
65329;BME280;51941;52.210;5.158;2023-02-23T04:23:26;101311.72;;;8.66;100.00
65329;BME280;51941;52.210;5.158;2023-02-23T04:25:54;101306.41;;;8.59;100.00
65329;BME280;51941;52.210;5.158;2023-02-23T04:28:23;101312.75;;;8.58;100.00
65329;BME280;51941;52.210;5.158;2023-02-23T04:30:50;101284.56;;;8.39;100.00
65329;BME280;51941;52.210;5.158;2023-02-23T04:33:19;101315.38;;;8.58;100.00
65329;BME280;51941;52.210;5.158;2023-02-23T04:35:46;101312.75;;;8.58;100.00
65329;BME280;51941;52.210;5.158;2023-02-23T04:38:13;101304.41;;;8.55;100.00
65329;BME280;51941;52.210;5.158;2023-02-23T04:40:40;101319.63;;;8.59;100.00
65329;BME280;51941;52.210;5.158;2023-02-23T04:43:08;101313.94;;;8.62;100.00
65329;BME280;51941;52.210;5.158;2023-02-23T04:45:35;101321.44;;;8.59;100.00
65329;BME280;51941;52.210;5.158;2023-02-23T04:48:02;101314.34;;;8.59;100.00
65329;BME280;51941;52.210;5.158;2023-02-23T04:50:30;101321.44;;;8.59;100.00
65329;BME280;51941;52.210;5.158;2023-02-23T04:52:57;101322.88;;;8.55;100.00
65329;BME280;51941;52.210;5.158;2023-02-23T04:55:24;101321.06;;;8.55;100.00
65329;BME280;51941;52.210;5.158;2023-02-23T04:57:56;101331.41;;;8.57;100.00
65329;BME280;51941;52.210;5.158;2023-02-23T05:00:23;101336.69;;;8.57;100.00
65329;BME280;51941;52.210;5.158;2023-02-23T05:02:50;101340.13;;;8.57;100.00
65329;BME280;51941;52.210;5.158;2023-02-23T05:05:17;101238.13;;;7.98;100.00
65329;BME280;51941;52.210;5.158;2023-02-23T05:07:45;101213.38;;;7.80;100.00
65329;BME280;51941;52.210;5.158;2023-02-23T05:10:12;101321.88;;;8.56;100.00
65329;BME280;51941;52.210;5.158;2023-02-23T05:12:39;101330.97;;;8.60;100.00
65329;BME280;51941;52.210;5.158;2023-02-23T05:15:07;101332.63;;;8.54;100.00
65329;BME280;51941;52.210;5.158;2023-02-23T05:17:37;101330.19;;;8.53;100.00
65329;BME280;51941;52.210;5.158;2023-02-23T05:20:06;101335.88;;;8.56;100.00
65329;BME280;51941;52.210;5.158;2023-02-23T05:22:33;101331.59;;;8.42;100.00
65329;BME280;51941;52.210;5.158;2023-02-23T05:25:01;101337.72;;;8.36;100.00
65329;BME280;51941;52.210;5.158;2023-02-23T05:27:29;101333.44;;;8.35;100.00
65329;BME280;51941;52.210;5.158;2023-02-23T05:29:56;101339.75;;;8.27;100.00
65329;BME280;51941;52.210;5.158;2023-02-23T05:32:23;101341.38;;;8.28;100.00
65329;BME280;51941;52.210;5.158;2023-02-23T05:34:50;101339.16;;;8.32;100.00
65329;BME280;51941;52.210;5.158;2023-02-23T05:37:17;101337.09;;;8.27;100.00
65329;BME280;51941;52.210;5.158;2023-02-23T05:39:45;101337.72;;;8.29;100.00
65329;BME280;51941;52.210;5.158;2023-02-23T05:42:13;101346.44;;;8.30;100.00
65329;BME280;51941;52.210;5.158;2023-02-23T05:44:40;101345.19;;;8.32;100.00
65329;BME280;51941;52.210;5.158;2023-02-23T05:47:07;101342.78;;;8.37;100.00
65329;BME280;51941;52.210;5.158;2023-02-23T05:49:35;101338.94;;;8.40;100.00
65329;BME280;51941;52.210;5.158;2023-02-23T05:52:03;101337.50;;;8.37;100.00
65329;BME280;51941;52.210;5.158;2023-02-23T05:54:29;101343.41;;;8.39;100.00
65329;BME280;51941;52.210;5.158;2023-02-23T05:56:56;101238.53;;;7.76;100.00
65329;BME280;51941;52.210;5.158;2023-02-23T05:59:24;101351.13;;;8.41;100.00
65329;BME280;51941;52.210;5.158;2023-02-23T06:01:51;101341.97;;;8.37;100.00
65329;BME280;51941;52.210;5.158;2023-02-23T06:04:18;101352.94;;;8.40;100.00
65329;BME280;51941;52.210;5.158;2023-02-23T06:06:47;101343.97;;;8.41;100.00
65329;BME280;51941;52.210;5.158;2023-02-23T06:09:14;101261.25;;;7.83;100.00
65329;BME280;51941;52.210;5.158;2023-02-23T06:11:41;101353.31;;;8.44;100.00
65329;BME280;51941;52.210;5.158;2023-02-23T06:14:09;101357.38;;;8.47;100.00
65329;BME280;51941;52.210;5.158;2023-02-23T06:16:37;101255.38;;;7.88;100.00
65329;BME280;51941;52.210;5.158;2023-02-23T06:19:04;101348.47;;;8.41;100.00
65329;BME280;51941;52.210;5.158;2023-02-23T06:21:30;101334.66;;;8.26;100.00
65329;BME280;51941;52.210;5.158;2023-02-23T06:23:57;101357.78;;;8.43;100.00
65329;BME280;51941;52.210;5.158;2023-02-23T06:26:25;101365.69;;;8.43;100.00
65329;BME280;51941;52.210;5.158;2023-02-23T06:28:52;101367.13;;;8.46;100.00
65329;BME280;51941;52.210;5.158;2023-02-23T06:31:19;101374.66;;;8.49;100.00
65329;BME280;51941;52.210;5.158;2023-02-23T06:33:47;101378.69;;;8.52;100.00
65329;BME280;51941;52.210;5.158;2023-02-23T06:36:14;101376.88;;;8.52;100.00
65329;BME280;51941;52.210;5.158;2023-02-23T06:38:41;101301.38;;;7.98;100.00
65329;BME280;51941;52.210;5.158;2023-02-23T06:41:10;101382.75;;;8.54;100.00
65329;BME280;51941;52.210;5.158;2023-02-23T06:43:37;101387.03;;;8.55;100.00
65329;BME280;51941;52.210;5.158;2023-02-23T06:46:04;101380.94;;;8.55;100.00
65329;BME280;51941;52.210;5.158;2023-02-23T06:48:30;101311.13;;;8.11;100.00
65329;BME280;51941;52.210;5.158;2023-02-23T06:50:59;101393.31;;;8.54;100.00
65329;BME280;51941;52.210;5.158;2023-02-23T06:53:26;101394.13;;;8.55;100.00
65329;BME280;51941;52.210;5.158;2023-02-23T06:55:53;101394.94;;;8.55;100.00
65329;BME280;51941;52.210;5.158;2023-02-23T06:58:20;101392.91;;;8.57;100.00
65329;BME280;51941;52.210;5.158;2023-02-23T07:00:47;101216.00;;;7.47;100.00
65329;BME280;51941;52.210;5.158;2023-02-23T07:03:13;101396.94;;;8.60;100.00
65329;BME280;51941;52.210;5.158;2023-02-23T07:05:40;101402.22;;;8.60;100.00
65329;BME280;51941;52.210;5.158;2023-02-23T07:08:09;101410.16;;;8.60;100.00
65329;BME280;51941;52.210;5.158;2023-02-23T07:10:35;101413.78;;;8.59;100.00
65329;BME280;51941;52.210;5.158;2023-02-23T07:13:02;101427.81;;;8.59;100.00
65329;BME280;51941;52.210;5.158;2023-02-23T07:15:29;101424.16;;;8.60;100.00
65329;BME280;51941;52.210;5.158;2023-02-23T07:17:56;101437.34;;;8.54;100.00
65329;BME280;51941;52.210;5.158;2023-02-23T07:20:23;101432.50;;;8.57;100.00
65329;BME280;51941;52.210;5.158;2023-02-23T07:22:49;101439.16;;;8.60;100.00
65329;BME280;51941;52.210;5.158;2023-02-23T07:25:18;101352.28;;;7.99;100.00
65329;BME280;51941;52.210;5.158;2023-02-23T07:27:45;101451.97;;;8.63;100.00
65329;BME280;51941;52.210;5.158;2023-02-23T07:30:12;101449.94;;;8.65;100.00
65329;BME280;51941;52.210;5.158;2023-02-23T07:32:40;101444.25;;;8.68;100.00
65329;BME280;51941;52.210;5.158;2023-02-23T07:35:07;101451.38;;;8.74;100.00
65329;BME280;51941;52.210;5.158;2023-02-23T07:37:34;101266.47;;;7.50;100.00
65329;BME280;51941;52.210;5.158;2023-02-23T07:40:01;101460.31;;;8.66;100.00
65329;BME280;51941;52.210;5.158;2023-02-23T07:42:29;101458.06;;;8.57;100.00
65329;BME280;51941;52.210;5.158;2023-02-23T07:44:56;101458.84;;;8.51;100.00
65329;BME280;51941;52.210;5.158;2023-02-23T07:47:23;101464.94;;;8.51;100.00
65329;BME280;51941;52.210;5.158;2023-02-23T07:49:56;101465.97;;;8.57;100.00
65329;BME280;51941;52.210;5.158;2023-02-23T07:52:23;101471.03;;;8.52;100.00
65329;BME280;51941;52.210;5.158;2023-02-23T07:54:50;101471.66;;;8.54;100.00
65329;BME280;51941;52.210;5.158;2023-02-23T07:57:17;101476.94;;;8.60;100.00
65329;BME280;51941;52.210;5.158;2023-02-23T07:59:46;101329.31;;;7.73;100.00
65329;BME280;51941;52.210;5.158;2023-02-23T08:02:14;101478.59;;;8.74;100.00
65329;BME280;51941;52.210;5.158;2023-02-23T08:04:40;101475.94;;;8.74;100.00
65329;BME280;51941;52.210;5.158;2023-02-23T08:07:08;101471.28;;;8.83;100.00
65329;BME280;51941;52.210;5.158;2023-02-23T08:09:35;101495.22;;;8.81;100.00
65329;BME280;51941;52.210;5.158;2023-02-23T08:12:02;101337.47;;;7.98;100.00
65329;BME280;51941;52.210;5.158;2023-02-23T08:14:29;101290.81;;;7.72;100.00
65329;BME280;51941;52.210;5.158;2023-02-23T08:16:58;101488.34;;;8.94;100.00
65329;BME280;51941;52.210;5.158;2023-02-23T08:19:26;101487.72;;;8.98;100.00
65329;BME280;51941;52.210;5.158;2023-02-23T08:21:53;101486.09;;;8.97;100.00
65329;BME280;51941;52.210;5.158;2023-02-23T08:24:20;101499.50;;;9.02;100.00
65329;BME280;51941;52.210;5.158;2023-02-23T08:26:47;101498.28;;;8.98;100.00
65329;BME280;51941;52.210;5.158;2023-02-23T08:29:15;101491.97;;;8.99;100.00
65329;BME280;51941;52.210;5.158;2023-02-23T08:31:42;101501.72;;;8.99;100.00
65329;BME280;51941;52.210;5.158;2023-02-23T08:34:10;101498.88;;;9.00;100.00
65329;BME280;51941;52.210;5.158;2023-02-23T08:36:37;101499.09;;;8.99;100.00
65329;BME280;51941;52.210;5.158;2023-02-23T08:39:04;101499.06;;;9.05;100.00
65329;BME280;51941;52.210;5.158;2023-02-23T08:41:32;101410.56;;;8.43;100.00
65329;BME280;51941;52.210;5.158;2023-02-23T08:43:58;101504.97;;;9.01;100.00
65329;BME280;51941;52.210;5.158;2023-02-23T08:46:25;101509.44;;;9.07;100.00
65329;BME280;51941;52.210;5.158;2023-02-23T08:48:52;101511.25;;;9.13;100.00
65329;BME280;51941;52.210;5.158;2023-02-23T08:51:22;101518.38;;;9.12;100.00
65329;BME280;51941;52.210;5.158;2023-02-23T08:53:49;101522.44;;;9.15;100.00
65329;BME280;51941;52.210;5.158;2023-02-23T08:56:16;101516.34;;;9.21;100.00
65329;BME280;51941;52.210;5.158;2023-02-23T08:58:43;101521.25;;;9.17;100.00
65329;BME280;51941;52.210;5.158;2023-02-23T09:01:16;101514.13;;;9.25;100.00
65329;BME280;51941;52.210;5.158;2023-02-23T09:03:43;101518.19;;;9.34;100.00
65329;BME280;51941;52.210;5.158;2023-02-23T09:06:12;101526.53;;;9.37;100.00
65329;BME280;51941;52.210;5.158;2023-02-23T09:08:41;101520.44;;;9.37;100.00
65329;BME280;51941;52.210;5.158;2023-02-23T09:11:08;101524.88;;;9.30;100.00
65329;BME280;51941;52.210;5.158;2023-02-23T09:13:34;101530.59;;;9.27;100.00
65329;BME280;51941;52.210;5.158;2023-02-23T09:16:01;101529.97;;;9.31;100.00
65329;BME280;51941;52.210;5.158;2023-02-23T09:18:29;101534.03;;;9.34;100.00
65329;BME280;51941;52.210;5.158;2023-02-23T09:20:57;101536.47;;;9.22;100.00
65329;BME280;51941;52.210;5.158;2023-02-23T09:23:26;101533.03;;;9.28;100.00
65329;BME280;51941;52.210;5.158;2023-02-23T09:25:55;101542.38;;;9.37;100.00
65329;BME280;51941;52.210;5.158;2023-02-23T09:28:22;101538.53;;;9.27;100.00
65329;BME280;51941;52.210;5.158;2023-02-23T09:30:49;101541.16;;;9.46;100.00
65329;BME280;51941;52.210;5.158;2023-02-23T09:33:15;101396.16;;;8.53;100.00
65329;BME280;51941;52.210;5.158;2023-02-23T09:35:42;101553.75;;;9.44;100.00
65329;BME280;51941;52.210;5.158;2023-02-23T09:38:09;101556.59;;;9.36;100.00
65329;BME280;51941;52.210;5.158;2023-02-23T09:40:43;101555.16;;;9.40;100.00
65329;BME280;51941;52.210;5.158;2023-02-23T09:43:14;101465.38;;;8.74;100.00
65329;BME280;51941;52.210;5.158;2023-02-23T09:45:48;101371.78;;;8.24;100.00
65329;BME280;51941;52.210;5.158;2023-02-23T09:48:18;101551.50;;;9.41;100.00
65329;BME280;51941;52.210;5.158;2023-02-23T09:50:48;101467.00;;;8.89;100.00
65329;BME280;51941;52.210;5.158;2023-02-23T09:53:25;101547.22;;;9.53;100.00
65329;BME280;51941;52.210;5.158;2023-02-23T09:55:55;101548.25;;;9.46;100.00
65329;BME280;51941;52.210;5.158;2023-02-23T09:58:25;101547.22;;;9.47;100.00
65329;BME280;51941;52.210;5.158;2023-02-23T10:01:13;101533.59;;;9.50;100.00
65329;BME280;51941;52.210;5.158;2023-02-23T10:03:49;101552.69;;;9.65;100.00
65329;BME280;51941;52.210;5.158;2023-02-23T10:06:18;101559.59;;;9.73;100.00
65329;BME280;51941;52.210;5.158;2023-02-23T10:08:53;101567.13;;;9.69;100.00
65329;BME280;51941;52.210;5.158;2023-02-23T10:11:29;101571.56;;;9.75;100.00
65329;BME280;51941;52.210;5.158;2023-02-23T10:14:06;101564.25;;;9.77;100.00
65329;BME280;51941;52.210;5.158;2023-02-23T10:16:44;101552.84;;;9.77;100.00
65329;BME280;51941;52.210;5.158;2023-02-23T10:19:16;101556.91;;;9.86;100.00
65329;BME280;51941;52.210;5.158;2023-02-23T10:21:53;101558.34;;;9.88;100.00
65329;BME280;51941;52.210;5.158;2023-02-23T10:24:23;101464.34;;;9.28;100.00
65329;BME280;51941;52.210;5.158;2023-02-23T10:26:53;101564.59;;;9.94;100.00
65329;BME280;51941;52.210;5.158;2023-02-23T10:29:26;101567.84;;;10.03;100.00
65329;BME280;51941;52.210;5.158;2023-02-23T10:31:56;101584.28;;;10.11;100.00
65329;BME280;51941;52.210;5.158;2023-02-23T10:34:26;101574.47;;;10.18;100.00
65329;BME280;51941;52.210;5.158;2023-02-23T10:36:58;101568.41;;;10.11;100.00
65329;BME280;51941;52.210;5.158;2023-02-23T10:39:27;101579.63;;;10.07;100.00
65329;BME280;51941;52.210;5.158;2023-02-23T10:41:55;101579.84;;;10.05;99.86
65329;BME280;51941;52.210;5.158;2023-02-23T10:44:26;101584.34;;;9.98;99.72
65329;BME280;51941;52.210;5.158;2023-02-23T10:46:57;101582.94;;;9.89;100.00
65329;BME280;51941;52.210;5.158;2023-02-23T10:49:38;101572.94;;;9.91;100.00
65329;BME280;51941;52.210;5.158;2023-02-23T10:52:09;101572.38;;;9.89;100.00
65329;BME280;51941;52.210;5.158;2023-02-23T10:54:45;101573.38;;;9.88;100.00
65329;BME280;51941;52.210;5.158;2023-02-23T10:57:20;101572.97;;;9.84;100.00
65329;BME280;51941;52.210;5.158;2023-02-23T11:00:21;101578.06;;;9.86;99.93
65329;BME280;51941;52.210;5.158;2023-02-23T11:02:52;101571.19;;;9.72;99.08
65329;BME280;51941;52.210;5.158;2023-02-23T11:05:32;101575.66;;;9.71;98.88
65329;BME280;51941;52.210;5.158;2023-02-23T11:08:12;101574.03;;;9.57;99.66
65329;BME280;51941;52.210;5.158;2023-02-23T11:10:54;101586.25;;;9.38;100.00
65329;BME280;51941;52.210;5.158;2023-02-23T11:13:21;101589.94;;;9.44;100.00
65329;BME280;51941;52.210;5.158;2023-02-23T11:15:58;101597.03;;;9.43;100.00
65329;BME280;51941;52.210;5.158;2023-02-23T11:18:26;101593.19;;;9.26;100.00
65329;BME280;51941;52.210;5.158;2023-02-23T11:20:54;101420.25;;;8.10;100.00
65329;BME280;51941;52.210;5.158;2023-02-23T11:23:22;101596.00;;;9.31;100.00
65329;BME280;51941;52.210;5.158;2023-02-23T11:25:55;101610.25;;;9.37;100.00
65329;BME280;51941;52.210;5.158;2023-02-23T11:28:27;101584.44;;;9.26;100.00
65329;BME280;51941;52.210;5.158;2023-02-23T11:30:59;101599.69;;;9.43;100.00
65329;BME280;51941;52.210;5.158;2023-02-23T11:33:30;101506.00;;;9.00;100.00
65329;BME280;51941;52.210;5.158;2023-02-23T11:36:13;101580.75;;;9.60;100.00
65329;BME280;51941;52.210;5.158;2023-02-23T11:38:40;101602.09;;;9.78;100.00
65329;BME280;51941;52.210;5.158;2023-02-23T11:41:18;101509.63;;;9.12;99.62
65329;BME280;51941;52.210;5.158;2023-02-23T11:43:47;101603.50;;;9.80;99.38
65329;BME280;51941;52.210;5.158;2023-02-23T11:46:15;101599.00;;;9.87;99.03
65329;BME280;51941;52.210;5.158;2023-02-23T11:48:48;101597.56;;;9.91;98.37
65329;BME280;51941;52.210;5.158;2023-02-23T11:51:23;101585.19;;;9.79;97.60
65329;BME280;51941;52.210;5.158;2023-02-23T11:53:50;101586.78;;;9.93;98.15
65329;BME280;51941;52.210;5.158;2023-02-23T11:56:19;101590.41;;;10.05;97.42
65329;BME280;51941;52.210;5.158;2023-02-23T11:58:49;101541.69;;;9.81;96.54
65329;BME280;51941;52.210;5.158;2023-02-23T12:01:25;101584.34;;;9.98;93.42
65329;BME280;51941;52.210;5.158;2023-02-23T12:04:00;101588.16;;;10.09;93.28
65329;BME280;51941;52.210;5.158;2023-02-23T12:06:29;101599.56;;;10.03;92.65
65329;BME280;51941;52.210;5.158;2023-02-23T12:09:00;101578.88;;;9.73;91.54
65329;BME280;51941;52.210;5.158;2023-02-23T12:11:33;101593.56;;;9.63;91.48
65329;BME280;51941;52.210;5.158;2023-02-23T12:14:07;101591.75;;;9.43;91.58
65329;BME280;51941;52.210;5.158;2023-02-23T12:16:40;101571.63;;;9.42;91.86
65329;BME280;51941;52.210;5.158;2023-02-23T12:19:20;101594.41;;;9.37;92.42
65329;BME280;51941;52.210;5.158;2023-02-23T12:21:52;101589.94;;;9.37;92.85
65329;BME280;51941;52.210;5.158;2023-02-23T12:24:34;101466.19;;;8.62;92.78
65329;BME280;51941;52.210;5.158;2023-02-23T12:27:08;101492.75;;;8.60;92.66
65329;BME280;51941;52.210;5.158;2023-02-23T12:29:42;101585.84;;;9.22;93.28
65329;BME280;51941;52.210;5.158;2023-02-23T12:32:18;101600.69;;;9.23;93.76
65329;BME280;51941;52.210;5.158;2023-02-23T12:34:48;101589.50;;;9.21;94.26
65329;BME280;51941;52.210;5.158;2023-02-23T12:37:28;101594.59;;;9.22;94.57
65329;BME280;51941;52.210;5.158;2023-02-23T12:40:12;101597.88;;;9.37;94.50
65329;BME280;51941;52.210;5.158;2023-02-23T12:42:45;101594.41;;;9.37;94.55
65329;BME280;51941;52.210;5.158;2023-02-23T12:45:24;101596.44;;;9.41;94.35
65329;BME280;51941;52.210;5.158;2023-02-23T12:48:01;101598.25;;;9.41;94.25
65329;BME280;51941;52.210;5.158;2023-02-23T12:50:30;101603.75;;;9.46;94.55
65329;BME280;51941;52.210;5.158;2023-02-23T12:53:03;101600.88;;;9.47;94.39
65329;BME280;51941;52.210;5.158;2023-02-23T12:55:39;101570.59;;;9.30;94.34
65329;BME280;51941;52.210;5.158;2023-02-23T12:58:18;101599.28;;;9.46;95.28
65329;BME280;51941;52.210;5.158;2023-02-23T13:00:55;101583.81;;;9.50;94.74
65329;BME280;51941;52.210;5.158;2023-02-23T13:03:50;101580.56;;;9.22;95.52
65329;BME280;51941;52.210;5.158;2023-02-23T13:06:26;101581.19;;;9.30;95.80
65329;BME280;51941;52.210;5.158;2023-02-23T13:09:07;101581.19;;;9.37;96.01
65329;BME280;51941;52.210;5.158;2023-02-23T13:12:00;101583.19;;;9.48;95.88
65329;BME280;51941;52.210;5.158;2023-02-23T13:14:36;101570.59;;;9.30;96.22
65329;BME280;51941;52.210;5.158;2023-02-23T13:17:10;101472.50;;;8.67;97.01
65329;BME280;51941;52.210;5.158;2023-02-23T13:19:47;101485.88;;;8.86;96.98